Time;durP1;ratioP1;P1;durP2;ratioP2;P2;SDS_P1;SDS_P2;PMS_P1;PMS_P2;Temp;Humidity;BMP_temperature;BMP_pressure;BME280_temperature;BME280_humidity;BME280_pressure;Samples;Min_cycle;Max_cycle;Signal;HPM_P1;HPM_P2
2023/06/17 00:01:24;;;;;;;5.38;4.53;;;;;;;21.27;67.46;100736.09;4993231;28;20049;-77
2023/06/17 00:03:52;;;;;;;5.72;4.32;;;;;;;21.25;64.29;100730.06;4993403;28;20081;-77
2023/06/17 00:06:20;;;;;;;4.82;4.15;;;;;;;21.36;63.35;100731.19;4993333;28;20046;-77
2023/06/17 00:08:50;;;;;;;4.35;3.92;;;;;;;21.40;63.59;100725.75;4992276;28;20050;-77
2023/06/17 00:11:18;;;;;;;6.90;4.40;;;;;;;21.28;61.88;100718.22;4993094;28;20054;-77
2023/06/17 00:13:47;;;;;;;10.65;4.22;;;;;;;21.38;61.96;100719.72;4993107;28;20043;-77
2023/06/17 00:16:17;;;;;;;5.43;4.10;;;;;;;21.38;61.19;100711.34;4993240;28;20050;-77
2023/06/17 00:18:47;;;;;;;6.20;4.07;;;;;;;21.37;61.96;100701.38;4992901;28;20047;-78
2023/06/17 00:21:15;;;;;;;4.82;4.30;;;;;;;21.33;62.53;100716.03;4993208;28;20051;-77
2023/06/17 00:23:45;;;;;;;4.38;3.80;;;;;;;21.31;62.89;100709.97;4975836;28;20042;-77
2023/06/17 00:26:13;;;;;;;5.20;4.47;;;;;;;21.43;63.21;100711.94;4992803;28;20050;-78
2023/06/17 00:28:41;;;;;;;8.85;4.97;;;;;;;21.37;64.46;100713.34;4959085;28;20073;-77
2023/06/17 00:31:09;;;;;;;8.13;5.47;;;;;;;21.41;65.44;100707.88;4992341;28;20045;-77
2023/06/17 00:33:37;;;;;;;6.47;4.85;;;;;;;21.17;67.23;100709.53;4992731;28;20046;-77
2023/06/17 00:36:06;;;;;;;7.25;5.30;;;;;;;20.97;69.57;100709.31;4975157;28;20054;-77
2023/06/17 00:38:34;;;;;;;12.10;5.88;;;;;;;20.86;70.29;100710.97;4992531;28;20039;-77
2023/06/17 00:41:02;;;;;;;9.05;6.97;;;;;;;20.63;73.23;100703.03;4992515;28;20053;-77
2023/06/17 00:43:30;;;;;;;9.27;6.90;;;;;;;20.70;73.43;100708.00;4992503;28;20393;-77
2023/06/17 00:45:58;;;;;;;7.60;6.40;;;;;;;20.78;74.15;100701.53;4992621;28;20409;-77
2023/06/17 00:48:27;;;;;;;9.45;7.22;;;;;;;20.64;74.77;100699.88;4992395;28;20051;-77
2023/06/17 00:51:01;;;;;;;10.48;7.22;;;;;;;20.45;75.57;100707.97;4974943;28;20044;-77
2023/06/17 00:53:30;;;;;;;10.68;7.70;;;;;;;20.53;76.15;100713.44;4991204;28;20053;-77
2023/06/17 00:55:58;;;;;;;9.82;7.30;;;;;;;20.52;76.14;100714.59;4992291;28;20054;-77
2023/06/17 00:58:28;;;;;;;8.32;6.30;;;;;;;20.60;75.77;100709.28;4974929;28;20539;-77
2023/06/17 01:00:56;;;;;;;10.02;6.00;;;;;;;20.59;75.43;100702.91;4992344;28;20038;-77
2023/06/17 01:03:24;;;;;;;9.82;6.78;;;;;;;20.72;74.88;100697.38;4992372;28;20050;-77
2023/06/17 01:05:59;;;;;;;10.48;6.82;;;;;;;20.70;74.73;100696.88;4958375;28;20050;-77
2023/06/17 01:08:40;;;;;;;11.63;6.88;;;;;;;20.71;74.12;100710.44;4992169;28;20461;-77
2023/06/17 01:11:13;;;;;;;10.40;6.88;;;;;;;20.73;74.47;100712.88;4958459;28;20050;-77
2023/06/17 01:13:42;;;;;;;12.05;6.97;;;;;;;20.74;74.67;100718.09;4994786;28;20053;-78
2023/06/17 01:16:11;;;;;;;12.35;6.70;;;;;;;20.85;74.53;100712.09;4978411;28;20049;-77
2023/06/17 01:18:40;;;;;;;9.40;6.65;;;;;;;20.75;75.14;100710.56;4978538;28;20065;-77
2023/06/17 01:21:08;;;;;;;9.77;6.25;;;;;;;20.68;75.98;100709.16;4995656;28;20397;-77
2023/06/17 01:23:37;;;;;;;8.52;6.18;;;;;;;20.54;75.97;100711.47;4995796;28;20046;-77
2023/06/17 01:26:07;;;;;;;8.85;6.07;;;;;;;20.45;76.69;100707.97;4978266;28;20053;-77
2023/06/17 01:28:38;;;;;;;11.27;6.95;;;;;;;20.38;77.66;100712.13;4995622;28;20046;-77
2023/06/17 01:31:08;;;;;;;9.15;6.30;;;;;;;20.34;77.07;100713.97;4962008;28;20054;-77
2023/06/17 01:33:38;;;;;;;10.80;7.45;;;;;;;20.37;77.51;100713.28;4995665;28;20046;-77
2023/06/17 01:36:31;;;;;;;10.27;6.60;;;;;;;20.34;77.76;100704.84;4995366;28;20050;-77
2023/06/17 01:39:04;;;;;;;9.80;6.40;;;;;;;20.29;78.00;100705.88;4995544;28;20051;-77
2023/06/17 01:41:46;;;;;;;7.78;6.45;;;;;;;20.23;77.66;100712.81;4978104;28;20038;-77
2023/06/17 01:44:15;;;;;;;12.27;6.45;;;;;;;20.19;77.08;100706.31;4978189;28;20050;-77
2023/06/17 01:46:43;;;;;;;9.65;6.25;;;;;;;20.11;77.15;100706.06;4962001;28;20081;-78
2023/06/17 01:49:11;;;;;;;10.15;6.35;;;;;;;20.00;77.64;100694.53;4977654;28;20051;-77
2023/06/17 01:51:39;;;;;;;8.90;6.07;;;;;;;20.06;78.01;100691.56;4961825;28;20042;-77
2023/06/17 01:54:07;;;;;;;7.70;5.85;;;;;;;20.14;77.92;100690.66;4995054;28;20057;-78
2023/06/17 01:56:37;;;;;;;8.80;5.90;;;;;;;20.07;77.64;100687.63;4978036;28;20049;-78
2023/06/17 01:59:05;;;;;;;9.00;6.18;;;;;;;20.01;79.00;100695.38;4977658;28;20043;-77
2023/06/17 02:01:34;;;;;;;9.32;6.28;;;;;;;19.99;79.04;100697.69;4995073;28;20065;-77
2023/06/17 02:04:01;;;;;;;8.52;6.38;;;;;;;20.03;78.27;100698.59;4994925;28;20050;-77
2023/06/17 02:06:30;;;;;;;10.38;6.05;;;;;;;19.91;78.49;100695.75;4961665;28;20050;-77
2023/06/17 02:08:58;;;;;;;12.32;6.30;;;;;;;19.77;79.21;100696.03;4977419;28;20043;-77
2023/06/17 02:11:27;;;;;;;10.02;5.82;;;;;;;19.87;77.94;100688.13;4995161;28;20489;-77
2023/06/17 02:13:55;;;;;;;8.27;5.72;;;;;;;19.96;76.13;100688.06;4994915;28;20066;-77
2023/06/17 02:16:23;;;;;;;7.30;5.30;;;;;;;19.99;75.56;100689.34;4977527;28;20050;-78
2023/06/17 02:18:54;;;;;;;7.28;5.80;;;;;;;19.77;75.50;100682.97;4977344;28;20047;-77
2023/06/17 02:21:22;;;;;;;8.25;5.80;;;;;;;19.60;76.15;100687.53;4977385;28;20408;-77
2023/06/17 02:23:50;;;;;;;6.32;5.65;;;;;;;19.60;75.83;100701.41;4994739;28;20046;-77
2023/06/17 02:26:18;;;;;;;8.73;5.70;;;;;;;19.50;76.21;100695.44;4994514;28;20051;-77
2023/06/17 02:28:46;;;;;;;8.80;5.22;;;;;;;19.41;76.54;100698.28;4994495;28;20489;-77
2023/06/17 02:31:14;;;;;;;7.68;5.45;;;;;;;19.43;76.58;100684.88;4994235;28;20065;-77
2023/06/17 02:33:42;;;;;;;5.75;5.00;;;;;;;19.48;76.04;100679.13;4977091;28;20057;-77
2023/06/17 02:36:14;;;;;;;6.03;4.82;;;;;;;19.45;75.55;100680.63;4994342;28;20046;-77
2023/06/17 02:38:42;;;;;;;6.30;5.10;;;;;;;19.44;74.79;100683.72;4976930;28;20057;-77
2023/06/17 02:41:10;;;;;;;6.78;5.20;;;;;;;19.37;74.70;100681.50;4977050;28;20046;-77
2023/06/17 02:43:38;;;;;;;6.97;5.25;;;;;;;19.20;73.91;100682.41;4976827;28;20046;-77
2023/06/17 02:46:06;;;;;;;6.70;4.88;;;;;;;19.18;73.51;100684.72;4976758;28;20057;-77
2023/06/17 02:48:35;;;;;;;5.85;4.68;;;;;;;19.04;74.19;100693.28;4994058;28;20046;-77
2023/06/17 02:51:04;;;;;;;5.32;4.65;;;;;;;18.93;72.98;100684.53;4994169;28;20393;-77
2023/06/17 02:53:32;;;;;;;5.30;4.72;;;;;;;18.88;73.59;100676.41;4976749;28;20053;-77
2023/06/17 02:56:01;;;;;;;7.25;4.30;;;;;;;19.01;73.08;100680.88;4976559;28;20404;-77
2023/06/17 02:58:32;;;;;;;4.90;4.43;;;;;;;19.01;73.47;100678.09;4976476;28;20061;-77
2023/06/17 03:01:00;;;;;;;5.68;4.68;;;;;;;19.02;73.48;100668.63;4976704;28;20446;-77
2023/06/17 03:03:34;;;;;;;7.43;4.50;;;;;;;19.02;72.22;100670.63;4976576;28;20056;-77
2023/06/17 03:06:07;;;;;;;5.00;4.50;;;;;;;19.07;71.30;100693.44;4976316;28;20068;-77
2023/06/17 03:08:40;;;;;;;6.00;4.15;;;;;;;19.09;71.73;100689.50;4976090;28;20050;-77
2023/06/17 03:11:09;;;;;;;5.65;4.38;;;;;;;18.86;71.86;100684.25;4976118;28;20046;-77
2023/06/17 03:13:39;;;;;;;4.90;4.28;;;;;;;18.76;72.57;100679.88;4975405;28;20061;-77
2023/06/17 03:16:16;;;;;;;5.47;4.50;;;;;;;18.64;73.43;100691.66;4976158;28;20050;-77
2023/06/17 03:18:45;;;;;;;9.32;4.80;;;;;;;18.63;73.73;100681.75;4975995;28;20046;-77
2023/06/17 03:21:13;;;;;;;5.20;4.47;;;;;;;18.65;73.48;100677.50;4976072;28;20042;-77
2023/06/17 03:23:41;;;;;;;6.43;5.10;;;;;;;18.69;72.74;100668.50;4976138;28;20488;-77
2023/06/17 03:26:10;;;;;;;8.27;4.82;;;;;;;18.59;72.88;100676.03;4976200;28;20043;-77
2023/06/17 03:28:38;;;;;;;7.45;5.10;;;;;;;18.63;72.16;100667.88;4976197;28;20050;-77
2023/06/17 03:31:06;;;;;;;6.40;4.68;;;;;;;18.62;71.86;100666.25;4976096;28;20050;-77
2023/06/17 03:33:34;;;;;;;7.95;5.20;;;;;;;18.62;71.52;100677.34;4975946;28;20058;-77
2023/06/17 03:36:02;;;;;;;7.10;4.72;;;;;;;18.46;72.07;100677.06;4975499;28;20524;-77
2023/06/17 03:38:30;;;;;;;7.68;4.72;;;;;;;18.29;72.38;100666.84;4975853;28;20054;-77
2023/06/17 03:40:59;;;;;;;5.35;4.85;;;;;;;18.22;73.05;100668.19;4976213;28;20500;-77
2023/06/17 03:43:27;;;;;;;9.38;5.38;;;;;;;18.19;72.89;100671.59;4959947;28;20108;-77
2023/06/17 03:45:55;;;;;;;9.50;5.10;;;;;;;18.20;73.46;100670.47;4975613;28;20046;-77
2023/06/17 03:48:23;;;;;;;5.55;4.90;;;;;;;18.36;72.85;100665.22;4975750;28;20046;-77
2023/06/17 03:50:52;;;;;;;7.85;5.40;;;;;;;18.44;71.67;100671.88;4975519;28;20045;-77
2023/06/17 03:53:20;;;;;;;5.20;4.60;;;;;;;18.26;72.73;100666.38;4959716;28;20042;-77
2023/06/17 03:55:50;;;;;;;6.43;4.65;;;;;;;18.49;71.80;100679.19;4975478;28;20382;-77
2023/06/17 03:58:18;;;;;;;6.18;4.82;;;;;;;18.35;71.84;100679.38;4992711;28;20057;-77
2023/06/17 04:00:49;;;;;;;6.07;4.97;;;;;;;18.19;72.19;100665.25;4975318;28;20050;-77
2023/06/17 04:03:25;;;;;;;8.80;5.30;;;;;;;18.30;71.59;100665.72;4991827;28;20051;-77
2023/06/17 04:05:54;;;;;;;6.13;4.35;;;;;;;18.36;71.65;100658.84;4975476;28;20054;-77
2023/06/17 04:08:23;;;;;;;7.50;5.07;;;;;;;18.24;71.13;100665.09;4975695;28;20042;-77
2023/06/17 04:10:53;;;;;;;7.13;4.90;;;;;;;18.26;70.92;100671.94;4975538;28;20050;-77
2023/06/17 04:13:21;;;;;;;7.03;4.90;;;;;;;18.47;71.65;100668.41;4992748;28;20055;-77
2023/06/17 04:15:52;;;;;;;5.72;4.80;;;;;;;18.53;70.02;100671.84;4975537;28;20050;-78
2023/06/17 04:18:20;;;;;;;7.15;4.90;;;;;;;18.51;69.98;100657.47;4975439;28;20054;-78
2023/06/17 04:20:49;;;;;;;7.50;4.80;;;;;;;18.43;69.58;100664.69;4975747;28;20489;-78
2023/06/17 04:23:17;;;;;;;6.72;4.93;;;;;;;18.41;69.53;100664.19;4992646;28;20046;-78
2023/06/17 04:25:45;;;;;;;7.38;5.28;;;;;;;18.43;69.63;100666.66;4976180;28;20049;-78
2023/06/17 04:28:17;;;;;;;8.55;4.97;;;;;;;18.32;69.25;100657.91;4977858;28;20046;-78
2023/06/17 04:30:46;;;;;;;10.52;4.90;;;;;;;18.56;68.66;100667.59;4976301;28;20046;-79
2023/06/17 04:33:14;;;;;;;7.90;4.65;;;;;;;18.63;67.65;100657.59;4993065;28;20039;-77
2023/06/17 04:35:42;;;;;;;7.00;4.70;;;;;;;18.84;68.22;100667.09;4994251;28;20062;-78
2023/06/17 04:38:11;;;;;;;5.85;4.50;;;;;;;18.70;67.14;100659.84;4993000;28;20046;-78
2023/06/17 04:40:41;;;;;;;5.82;5.00;;;;;;;18.95;66.77;100660.03;4958691;28;20047;-78
2023/06/17 04:43:10;;;;;;;6.45;4.28;;;;;;;19.06;66.10;100652.16;4975511;28;20039;-77
2023/06/17 04:45:39;;;;;;;6.15;4.60;;;;;;;19.05;65.48;100656.91;4976331;28;20401;-78
2023/06/17 04:48:07;;;;;;;4.75;4.15;;;;;;;19.20;66.29;100655.50;4977208;28;20051;-77
2023/06/17 04:50:35;;;;;;;6.25;5.18;;;;;;;19.41;66.09;100656.66;4963562;28;20054;-78
2023/06/17 04:53:03;;;;;;;6.50;4.60;;;;;;;19.28;65.70;100659.38;4996390;28;20050;-78
2023/06/17 04:55:35;;;;;;;8.82;4.53;;;;;;;19.49;63.88;100664.09;4963434;28;20046;-78
2023/06/17 04:58:05;;;;;;;7.22;4.43;;;;;;;19.67;61.85;100672.28;4979629;28;20046;-77
2023/06/17 05:00:45;;;;;;;5.55;3.92;;;;;;;19.48;62.42;100670.81;4964990;28;20377;-77
2023/06/17 05:03:23;;;;;;;5.28;4.18;;;;;;;19.68;61.75;100668.34;4978717;28;20057;-77
2023/06/17 05:05:53;;;;;;;6.15;4.13;;;;;;;19.80;62.33;100665.63;4962304;28;20397;-78
2023/06/17 05:08:23;;;;;;;6.13;3.90;;;;;;;19.96;60.43;100663.06;4978565;28;20038;-77
2023/06/17 05:10:52;;;;;;;5.32;4.20;;;;;;;19.98;61.64;100662.69;4978340;28;20042;-77
2023/06/17 05:13:20;;;;;;;6.78;4.18;;;;;;;19.96;61.68;100660.28;4978422;28;20049;-77
2023/06/17 05:15:49;;;;;;;6.30;4.43;;;;;;;20.21;61.43;100667.84;4978449;28;20058;-78
2023/06/17 05:18:17;;;;;;;5.85;3.88;;;;;;;20.55;61.48;100668.63;4978995;28;20404;-85
2023/06/17 05:20:45;;;;;;;7.72;4.57;;;;;;;20.98;60.07;100671.19;4978008;28;20122;-86
2023/06/17 05:23:13;;;;;;;8.02;4.43;;;;;;;21.13;60.23;100673.25;4962751;28;20050;-86
2023/06/17 05:25:41;;;;;;;8.00;4.70;;;;;;;21.41;59.25;100674.47;4963205;28;20106;-85
2023/06/17 05:28:10;;;;;;;6.65;4.28;;;;;;;21.26;58.85;100678.81;4996063;28;20099;-85
2023/06/17 05:30:39;;;;;;;5.85;4.65;;;;;;;21.45;58.66;100673.41;4977432;28;20073;-86
2023/06/17 05:33:09;;;;;;;5.57;3.95;;;;;;;21.54;59.18;100678.84;4978989;28;20049;-85
2023/06/17 05:35:38;;;;;;;6.35;4.45;;;;;;;21.69;58.75;100673.69;4975408;28;20058;-85
2023/06/17 05:38:08;;;;;;;6.05;4.20;;;;;;;21.78;58.62;100679.94;4950493;28;20053;-85
2023/06/17 05:40:36;;;;;;;5.00;4.15;;;;;;;21.94;58.29;100681.97;4977219;28;20035;-85
2023/06/17 05:43:05;;;;;;;4.90;4.40;;;;;;;21.85;60.05;100668.22;4995784;28;20049;-79
2023/06/17 05:45:33;;;;;;;5.43;4.00;;;;;;;22.03;59.22;100679.81;4977867;28;20508;-86
2023/06/17 05:48:02;;;;;;;6.25;4.10;;;;;;;22.22;58.66;100670.78;4962191;28;20046;-87
2023/06/17 05:50:31;;;;;;;7.95;4.25;;;;;;;22.08;58.86;100670.38;4977404;28;20042;-87
2023/06/17 05:53:00;;;;;;;5.63;4.15;;;;;;;22.17;57.29;100665.47;4961282;28;20065;-87
2023/06/17 05:55:29;;;;;;;4.97;4.18;;;;;;;22.18;57.62;100669.88;4994937;28;20405;-87
2023/06/17 05:57:57;;;;;;;5.45;4.50;;;;;;;22.39;57.24;100664.03;4978270;28;20409;-87
2023/06/17 06:00:28;;;;;;;5.15;3.88;;;;;;;22.60;56.44;100671.38;4962830;28;20057;-87
2023/06/17 06:02:56;;;;;;;6.53;4.10;;;;;;;22.57;55.38;100672.06;4946142;28;20493;-88
2023/06/17 06:05:28;;;;;;;4.90;3.92;;;;;;;22.68;54.86;100669.56;4966622;28;20401;-88
2023/06/17 06:08:00;;;;;;;5.28;4.43;;;;;;;22.71;55.33;100676.38;4961090;28;20050;-87
2023/06/17 06:11:03;;;;;;;6.97;4.00;;;;;;;22.90;55.64;100684.84;4951685;28;20074;-87
2023/06/17 06:13:33;;;;;;;5.88;4.03;;;;;;;22.97;55.45;100689.75;4980561;28;20057;-87
2023/06/17 06:16:03;;;;;;;5.10;3.35;;;;;;;23.05;54.07;100674.00;4979920;28;20049;-87
2023/06/17 06:18:32;;;;;;;5.18;4.10;;;;;;;23.13;53.63;100691.72;4994458;28;20408;-87
2023/06/17 06:21:00;;;;;;;6.50;4.55;;;;;;;23.22;52.93;100681.19;4977700;28;20042;-85
2023/06/17 06:23:29;;;;;;;9.40;4.50;;;;;;;23.22;52.38;100683.97;4985734;28;20412;-85
2023/06/17 06:25:58;;;;;;;9.82;4.10;;;;;;;23.09;52.64;100678.50;4992381;28;20042;-85
2023/06/17 06:28:26;;;;;;;9.32;4.72;;;;;;;23.34;52.24;100683.88;4978482;28;20393;-84
2023/06/17 06:30:54;;;;;;;5.47;4.43;;;;;;;23.31;52.90;100700.53;4976657;28;20035;-84
2023/06/17 06:33:23;;;;;;;5.30;4.25;;;;;;;23.20;54.27;100681.53;4960503;28;20046;-84
2023/06/17 06:35:54;;;;;;;5.50;3.97;;;;;;;23.25;52.29;100674.06;4975367;28;20434;-85
2023/06/17 06:38:24;;;;;;;7.15;3.80;;;;;;;23.47;51.95;100689.31;4965586;28;20038;-85
2023/06/17 06:40:56;;;;;;;5.32;4.00;;;;;;;23.66;50.80;100679.31;4978297;28;20038;-85
2023/06/17 06:43:26;;;;;;;4.38;3.78;;;;;;;23.65;49.88;100681.28;4978819;28;20046;-84
2023/06/17 06:45:55;;;;;;;3.72;3.35;;;;;;;23.76;50.86;100685.13;4994635;28;20490;-84
2023/06/17 06:48:27;;;;;;;4.43;3.65;;;;;;;23.89;50.16;100676.56;4977035;28;20393;-85
2023/06/17 06:50:57;;;;;;;12.65;4.35;;;;;;;24.00;48.71;100683.19;4961090;28;20505;-84
2023/06/17 06:53:25;;;;;;;3.67;3.33;;;;;;;24.13;49.22;100685.84;4994782;28;20042;-85
2023/06/17 06:55:58;;;;;;;6.47;3.75;;;;;;;24.26;47.79;100694.88;4975478;28;20054;-85
2023/06/17 06:58:27;;;;;;;4.50;3.53;;;;;;;24.28;47.46;100675.72;4958263;28;20042;-84
2023/06/17 07:00:55;;;;;;;5.00;3.33;;;;;;;24.39;45.01;100679.50;4976671;28;20046;-85
2023/06/17 07:03:24;;;;;;;3.60;3.28;;;;;;;24.52;43.32;100674.53;4975608;28;20391;-85
2023/06/17 07:05:55;;;;;;;4.07;3.67;;;;;;;24.71;42.68;100686.84;4960853;28;20042;-85
2023/06/17 07:08:24;;;;;;;6.22;3.63;;;;;;;24.60;43.33;100675.47;4976639;28;20038;-85
2023/06/17 07:10:53;;;;;;;7.25;3.60;;;;;;;24.80;45.82;100680.97;4959658;28;20046;-85
2023/06/17 07:13:23;;;;;;;4.50;3.50;;;;;;;24.72;44.07;100682.84;4975912;28;20046;-86
2023/06/17 07:15:52;;;;;;;4.13;3.50;;;;;;;24.85;44.78;100683.50;4967086;28;20046;-85
2023/06/17 07:18:20;;;;;;;5.72;3.70;;;;;;;24.95;45.08;100685.66;4992875;28;20046;-86
2023/06/17 07:20:48;;;;;;;3.92;3.53;;;;;;;24.88;42.20;100691.13;4975460;28;20062;-85
2023/06/17 07:23:16;;;;;;;5.25;3.50;;;;;;;25.06;45.08;100696.19;4973044;28;20038;-86
2023/06/17 07:25:44;;;;;;;5.65;3.80;;;;;;;25.02;42.80;100692.53;4978039;28;20058;-87
2023/06/17 07:28:13;;;;;;;6.47;3.38;;;;;;;25.18;43.26;100681.94;4976179;28;20038;-87
2023/06/17 07:30:41;;;;;;;4.45;3.90;;;;;;;25.20;41.74;100695.59;4975983;28;20050;-88
2023/06/17 07:33:10;;;;;;;7.25;3.55;;;;;;;25.26;42.20;100674.47;4992448;28;20057;-87
2023/06/17 07:35:39;;;;;;;4.70;3.95;;;;;;;25.27;41.70;100687.28;4975341;28;20042;-88
2023/06/17 07:38:09;;;;;;;5.25;3.45;;;;;;;25.34;42.41;100681.78;4968833;28;20050;-87
2023/06/17 07:40:38;;;;;;;5.05;3.72;;;;;;;25.55;42.00;100683.28;4975880;28;20058;-88
2023/06/17 07:43:06;;;;;;;4.03;3.50;;;;;;;25.67;42.52;100687.03;4993910;28;20046;-87
2023/06/17 07:45:34;;;;;;;5.68;3.40;;;;;;;25.69;41.99;100688.25;4984357;28;20051;-86
2023/06/17 07:48:02;;;;;;;4.63;3.60;;;;;;;25.74;39.53;100693.53;4989794;28;20046;-86
2023/06/17 07:50:30;;;;;;;3.70;3.10;;;;;;;25.82;40.75;100682.38;4992796;28;20057;-87
2023/06/17 07:53:00;;;;;;;4.63;3.33;;;;;;;25.83;41.55;100692.41;4992211;28;20046;-89
2023/06/17 07:55:28;;;;;;;7.40;3.40;;;;;;;25.93;40.80;100677.72;4993266;28;20046;-87
2023/06/17 07:57:57;;;;;;;6.47;3.53;;;;;;;26.08;40.65;100686.25;4976004;28;20050;-87
2023/06/17 08:00:26;;;;;;;6.50;3.05;;;;;;;25.95;38.91;100677.34;4993187;28;20042;-87
2023/06/17 08:02:55;;;;;;;8.30;4.18;;;;;;;26.06;40.75;100671.84;4976169;28;20050;-87
2023/06/17 08:05:23;;;;;;;6.00;3.45;;;;;;;26.03;40.27;100679.84;4993566;28;20042;-87
2023/06/17 08:07:51;;;;;;;5.25;3.90;;;;;;;26.11;40.99;100677.09;4993567;28;20047;-87
2023/06/17 08:10:19;;;;;;;4.45;3.72;;;;;;;26.08;41.28;100675.88;4976531;28;20057;-87
2023/06/17 08:12:48;;;;;;;4.47;3.80;;;;;;;26.24;41.68;100678.44;4994089;28;20042;-87
2023/06/17 08:15:16;;;;;;;3.67;3.22;;;;;;;26.30;40.34;100682.50;4976960;28;20090;-87
2023/06/17 08:17:44;;;;;;;4.18;3.78;;;;;;;26.46;42.01;100677.84;4984782;28;20054;-88
2023/06/17 08:20:13;;;;;;;4.95;3.38;;;;;;;26.46;41.66;100672.22;4974066;28;20050;-87
2023/06/17 08:22:42;;;;;;;4.93;3.75;;;;;;;26.53;41.68;100664.69;4975533;28;20405;-87
2023/06/17 08:25:12;;;;;;;4.72;3.72;;;;;;;26.45;41.28;100670.63;4977788;28;20038;-87
2023/06/17 08:27:44;;;;;;;7.35;4.07;;;;;;;26.58;39.18;100673.94;4992047;28;20038;-87
2023/06/17 08:30:12;;;;;;;9.77;4.05;;;;;;;26.63;38.44;100670.78;4959360;28;20062;-83
2023/06/17 08:32:41;;;;;;;5.80;3.58;;;;;;;26.72;40.44;100671.22;4967188;28;20043;-84
2023/06/17 08:35:09;;;;;;;4.65;4.00;;;;;;;26.65;40.25;100662.75;4976664;28;20050;-85
2023/06/17 08:37:38;;;;;;;5.25;3.88;;;;;;;26.66;40.38;100667.19;4974677;28;20046;-85
2023/06/17 08:40:08;;;;;;;5.95;4.35;;;;;;;26.70;40.79;100662.41;4958445;28;20059;-85
2023/06/17 08:42:36;;;;;;;4.72;3.72;;;;;;;26.92;40.54;100670.97;4974331;28;20054;-85
2023/06/17 08:45:06;;;;;;;6.32;3.55;;;;;;;27.03;39.94;100663.44;4962041;28;20046;-86
2023/06/17 08:47:36;;;;;;;4.50;3.38;;;;;;;27.00;38.64;100650.19;4975635;28;20047;-86
2023/06/17 08:50:07;;;;;;;5.03;3.38;;;;;;;27.31;38.09;100663.97;4961693;28;20054;-86
2023/06/17 08:52:36;;;;;;;3.83;3.15;;;;;;;27.35;37.34;100660.00;4974711;28;20050;-87
2023/06/17 08:55:06;;;;;;;4.93;3.63;;;;;;;27.22;35.39;100658.75;4978614;28;20046;-86
2023/06/17 08:57:34;;;;;;;4.05;3.17;;;;;;;27.30;35.14;100665.19;4974548;28;20061;-86
2023/06/17 09:00:03;;;;;;;4.53;2.97;;;;;;;27.37;36.42;100662.44;4981251;28;20477;-86
2023/06/17 09:02:38;;;;;;;5.13;2.90;;;;;;;27.50;36.52;100662.88;4976235;28;20058;-86
2023/06/17 09:05:07;;;;;;;4.90;3.47;;;;;;;27.52;36.06;100656.84;4978967;28;20046;-87
2023/06/17 09:07:37;;;;;;;4.43;3.20;;;;;;;27.73;34.50;100665.41;4973139;28;20042;-86
2023/06/17 09:10:07;;;;;;;4.07;2.90;;;;;;;27.73;32.07;100667.41;4966778;28;20134;-88
2023/06/17 09:12:40;;;;;;;3.40;3.10;;;;;;;27.74;32.98;100663.38;4948300;28;20414;-86
2023/06/17 09:15:15;;;;;;;4.53;3.15;;;;;;;27.86;33.03;100654.56;4977211;28;20062;-86
2023/06/17 09:17:45;;;;;;;4.38;3.28;;;;;;;28.12;31.98;100661.06;4985685;28;20122;-86
2023/06/17 09:20:15;;;;;;;4.72;3.42;;;;;;;28.13;31.40;100659.03;4976816;28;20070;-86
2023/06/17 09:22:48;;;;;;;3.75;2.75;;;;;;;28.32;31.86;100654.25;4956141;28;20043;-86
2023/06/17 09:25:18;;;;;;;5.25;3.50;;;;;;;28.44;31.87;100657.50;4975655;28;20378;-86
2023/06/17 09:27:49;;;;;;;5.13;2.97;;;;;;;28.32;31.28;100655.06;4988804;28;20520;-86
2023/06/17 09:30:43;;;;;;;3.88;3.47;;;;;;;28.48;31.28;100653.88;4991692;28;20054;-86
2023/06/17 09:33:19;;;;;;;;;;;;;;;28.60;31.44;100659.09;4984889;28;20043;-86
2023/06/17 09:35:47;;;;;;;3.50;3.13;;;;;;;28.56;31.31;100656.28;4963472;28;19925;-87
2023/06/17 09:38:20;;;;;;;3.45;3.15;;;;;;;28.58;30.39;100658.69;4962416;28;20493;-86
2023/06/17 09:40:49;;;;;;;3.20;2.72;;;;;;;28.62;31.49;100653.88;4976722;28;20513;-86
2023/06/17 09:43:18;;;;;;;5.43;3.22;;;;;;;28.68;32.11;100654.25;4975535;28;20414;-86
2023/06/17 09:45:55;;;;;;;3.45;3.13;;;;;;;28.65;31.43;100650.25;4981028;28;20050;-88
2023/06/17 09:48:29;;;;;;;4.55;3.45;;;;;;;28.67;31.78;100652.63;4980473;28;20046;-87
2023/06/17 09:50:57;;;;;;;;;;;;;;;28.79;32.79;100654.25;4964111;28;20050;-87
2023/06/17 09:53:27;;;;;;;4.85;3.30;;;;;;;28.80;31.36;100656.66;4976855;28;20308;-87
2023/06/17 09:55:57;;;;;;;4.22;3.60;;;;;;;28.86;31.84;100657.06;4960160;28;20046;-86
2023/06/17 09:58:34;;;;;;;4.60;3.30;;;;;;;28.91;30.50;100648.22;4976439;28;20050;-87
2023/06/17 10:01:06;;;;;;;4.47;2.88;;;;;;;28.95;31.33;100637.75;4964101;28;20106;-87
2023/06/17 10:03:34;;;;;;;3.30;2.92;;;;;;;29.08;31.28;100657.03;4994739;28;20053;-87
2023/06/17 10:06:07;;;;;;;6.03;3.15;;;;;;;29.14;30.31;100654.59;4977311;28;20035;-86
2023/06/17 10:08:43;;;;;;;4.22;3.20;;;;;;;28.99;28.73;100646.19;4994682;28;20046;-87
2023/06/17 10:11:15;;;;;;;5.63;3.22;;;;;;;29.14;30.89;100643.31;4995236;28;20050;-86
2023/06/17 10:13:49;;;;;;;3.28;2.97;;;;;;;29.24;30.68;100653.75;4994694;28;20505;-88
2023/06/17 10:16:21;;;;;;;4.90;3.10;;;;;;;29.24;29.66;100648.91;4977499;28;20056;-86
2023/06/17 10:18:51;;;;;;;5.15;3.33;;;;;;;29.18;30.87;100650.53;4994812;28;20061;-87
2023/06/17 10:21:23;;;;;;;3.58;3.05;;;;;;;29.27;29.93;100646.50;4977165;28;20065;-86
2023/06/17 10:23:53;;;;;;;4.75;3.53;;;;;;;29.49;29.09;100641.59;4993607;28;20053;-86
2023/06/17 10:26:22;;;;;;;4.45;2.90;;;;;;;29.65;28.40;100649.56;4994831;28;20061;-86
2023/06/17 10:28:52;;;;;;;4.22;3.05;;;;;;;29.52;27.65;100648.44;4971558;28;20509;-87
2023/06/17 10:31:28;;;;;;;3.90;3.00;;;;;;;29.68;27.33;100653.59;4975053;28;20039;-86
2023/06/17 10:34:00;;;;;;;4.72;3.10;;;;;;;29.84;28.86;100633.34;4979373;28;20049;-86
2023/06/17 10:36:28;;;;;;;4.50;3.10;;;;;;;29.68;27.85;100631.84;4961235;28;20050;-86
2023/06/17 10:39:04;;;;;;;3.22;2.92;;;;;;;29.70;27.70;100643.50;4994273;28;20524;-87
2023/06/17 10:41:38;;;;;;;6.97;3.05;;;;;;;29.83;28.14;100640.22;4994650;28;20054;-86
2023/06/17 10:44:35;;;;;;;4.57;3.08;;;;;;;30.04;29.59;100650.53;4977138;28;20062;-87
2023/06/17 10:47:15;;;;;;;3.28;2.97;;;;;;;29.94;29.50;100632.47;4993752;28;20043;-87
2023/06/17 10:49:45;;;;;;;5.85;2.83;;;;;;;29.71;30.01;100630.22;4994024;28;20508;-86
2023/06/17 10:52:14;;;;;;;3.42;3.10;;;;;;;29.78;28.44;100639.41;4994572;28;20069;-86
2023/06/17 10:54:54;;;;;;;5.93;3.30;;;;;;;29.92;28.25;100629.28;4977091;28;20050;-87
2023/06/17 10:57:33;;;;;;;5.78;3.30;;;;;;;30.13;28.86;100641.66;4993829;28;20066;-86
2023/06/17 11:00:10;;;;;;;4.07;2.85;;;;;;;30.06;29.21;100633.22;4990872;28;20046;-86
2023/06/17 11:02:38;;;;;;;3.25;2.65;;;;;;;30.09;26.58;100629.56;4975444;28;20047;-86
2023/06/17 11:05:08;;;;;;;3.80;3.10;;;;;;;30.26;28.12;100633.50;4966084;28;20069;-86
2023/06/17 11:07:36;;;;;;;3.40;3.00;;;;;;;30.04;26.86;100634.44;4996525;28;20055;-87
2023/06/17 11:10:05;;;;;;;4.45;3.03;;;;;;;30.23;28.53;100629.47;4994462;28;20417;-86
2023/06/17 11:12:39;;;;;;;4.38;2.83;;;;;;;30.28;27.15;100634.69;4996261;28;20122;-87
2023/06/17 11:15:07;;;;;;;3.40;2.88;;;;;;;30.37;27.95;100622.91;4973999;28;20046;-85
2023/06/17 11:17:35;;;;;;;4.78;3.20;;;;;;;30.12;26.86;100625.94;4974561;28;20039;-87
2023/06/17 11:20:06;;;;;;;3.20;2.67;;;;;;;30.19;27.32;100628.69;4961369;28;20043;-86
2023/06/17 11:22:39;;;;;;;4.28;3.15;;;;;;;30.38;27.52;100632.16;4995198;28;20481;-87
2023/06/17 11:25:10;;;;;;;3.63;3.10;;;;;;;30.63;27.67;100631.16;4957765;28;20391;-86
2023/06/17 11:27:40;;;;;;;4.80;3.20;;;;;;;30.66;26.27;100630.31;4986114;28;20051;-85
2023/06/17 11:30:10;;;;;;;4.22;2.97;;;;;;;30.70;26.23;100626.25;4988209;28;20051;-86
2023/06/17 11:32:41;;;;;;;4.50;2.88;;;;;;;30.81;27.08;100628.97;4956461;28;20057;-86
2023/06/17 11:35:10;;;;;;;4.25;3.38;;;;;;;30.80;26.90;100624.53;4970695;28;20062;-86
2023/06/17 11:37:39;;;;;;;3.63;2.92;;;;;;;30.94;27.17;100620.75;4984365;28;20046;-88